createdAt,value
2023-06-22T00:00:35.944Z,17.30
2023-06-22T00:03:05.296Z,17.30
2023-06-22T00:05:33.297Z,17.30
2023-06-22T00:08:04.188Z,17.20
2023-06-22T00:10:32.128Z,17.20
2023-06-22T00:13:00.043Z,17.20
2023-06-22T00:15:28.134Z,17.10
2023-06-22T00:17:56.227Z,17.10
2023-06-22T00:20:29.183Z,17.00
2023-06-22T00:22:57.923Z,17.00
2023-06-22T00:25:26.173Z,17.00
2023-06-22T00:27:54.217Z,17.00
2023-06-22T00:30:22.145Z,16.90
2023-06-22T00:32:50.155Z,16.90
2023-06-22T00:35:18.172Z,16.90
2023-06-22T00:37:47.478Z,16.80
2023-06-22T00:40:15.819Z,16.80
2023-06-22T00:42:43.702Z,16.80
2023-06-22T00:45:11.773Z,16.80
2023-06-22T00:47:39.978Z,16.80
2023-06-22T00:50:09.449Z,16.80
2023-06-22T00:52:37.373Z,16.80
2023-06-22T00:55:07.936Z,16.70
2023-06-22T00:57:38.430Z,16.70
2023-06-22T01:00:08.556Z,16.60
2023-06-22T01:02:38.059Z,16.60
2023-06-22T01:05:07.584Z,16.60
2023-06-22T01:07:37.950Z,16.60
2023-06-22T01:10:10.041Z,16.50
2023-06-22T01:12:42.145Z,16.60
2023-06-22T01:15:11.547Z,16.50
2023-06-22T01:17:42.424Z,16.50
2023-06-22T01:20:13.071Z,16.50
2023-06-22T01:22:48.058Z,16.50
2023-06-22T01:25:21.297Z,16.50
2023-06-22T01:27:52.237Z,16.40
2023-06-22T01:30:21.672Z,16.40
2023-06-22T01:32:50.685Z,16.40
2023-06-22T01:35:19.236Z,16.30
2023-06-22T01:37:48.146Z,16.30
2023-06-22T01:40:16.373Z,16.30
2023-06-22T01:42:45.122Z,16.30
2023-06-22T01:45:13.437Z,16.20
2023-06-22T01:47:43.146Z,16.20
2023-06-22T01:50:11.571Z,16.20
2023-06-22T01:52:39.512Z,16.20
2023-06-22T01:55:09.126Z,16.20
2023-06-22T01:57:38.661Z,16.10
2023-06-22T02:00:09.025Z,16.20
2023-06-22T02:02:41.239Z,16.20
2023-06-22T02:05:12.114Z,16.20
2023-06-22T02:07:43.607Z,16.10
2023-06-22T02:10:13.416Z,16.20
2023-06-22T02:12:42.652Z,16.10
2023-06-22T02:15:11.380Z,16.20
2023-06-22T02:17:39.467Z,16.10
2023-06-22T02:20:09.906Z,16.10
2023-06-22T02:22:39.257Z,16.10
2023-06-22T02:25:07.392Z,16.10
2023-06-22T02:27:35.285Z,16.10
2023-06-22T02:30:03.232Z,16.10
2023-06-22T02:32:31.214Z,16.00
2023-06-22T02:34:59.196Z,16.00
2023-06-22T02:37:30.773Z,16.00
2023-06-22T02:40:00.084Z,16.00
2023-06-22T02:42:28.004Z,16.00
2023-06-22T02:44:55.945Z,15.90
2023-06-22T02:47:23.951Z,15.90
2023-06-22T02:49:51.816Z,15.80
2023-06-22T02:52:19.733Z,15.80
2023-06-22T02:54:47.826Z,15.80
2023-06-22T02:57:17.065Z,15.80
2023-06-22T02:59:44.968Z,15.80
2023-06-22T03:02:13.324Z,15.80
2023-06-22T03:04:41.322Z,15.80
2023-06-22T03:07:09.286Z,15.80
2023-06-22T03:09:37.251Z,15.80
2023-06-22T03:12:05.440Z,15.80
2023-06-22T03:14:34.733Z,15.80
2023-06-22T03:17:04.324Z,15.80
2023-06-22T03:19:33.284Z,15.70
2023-06-22T03:22:01.697Z,15.70
2023-06-22T03:24:30.686Z,15.80
2023-06-22T03:26:58.709Z,15.80
2023-06-22T03:29:28.924Z,15.80
2023-06-22T03:31:59.934Z,15.80
2023-06-22T03:34:28.001Z,15.80
2023-06-22T03:36:55.917Z,15.70
2023-06-22T03:39:25.056Z,15.70
2023-06-22T03:41:53.039Z,15.70
2023-06-22T03:44:21.031Z,15.80
2023-06-22T03:46:48.982Z,15.80
2023-06-22T03:49:18.263Z,15.70
2023-06-22T03:51:46.327Z,15.80
2023-06-22T03:54:14.228Z,15.80
2023-06-22T03:56:42.135Z,15.80
2023-06-22T03:59:10.056Z,15.90
2023-06-22T04:01:38.012Z,15.90
2023-06-22T04:04:06.306Z,16.00
2023-06-22T04:06:35.920Z,16.00
2023-06-22T04:09:04.514Z,16.00
2023-06-22T04:11:32.422Z,16.10
2023-06-22T04:14:00.424Z,16.20
2023-06-22T04:16:28.438Z,16.20
2023-06-22T04:18:56.376Z,16.30
2023-06-22T04:21:24.255Z,16.40
2023-06-22T04:23:53.568Z,16.40
2023-06-22T04:26:22.298Z,16.50
2023-06-22T04:28:52.760Z,16.60
2023-06-22T04:31:21.062Z,16.70
2023-06-22T04:33:49.109Z,16.70
2023-06-22T04:36:17.187Z,16.80
2023-06-22T04:38:45.473Z,16.90
2023-06-22T04:41:25.092Z,16.90
2023-06-22T04:43:55.087Z,17.00
2023-06-22T04:46:23.098Z,17.20
2023-06-22T04:48:51.059Z,17.30
2023-06-22T04:51:22.835Z,17.40
2023-06-22T04:53:50.959Z,17.50
2023-06-22T04:56:22.725Z,17.60
2023-06-22T04:58:52.735Z,17.70
2023-06-22T05:01:20.734Z,17.80
2023-06-22T05:03:48.844Z,17.90
2023-06-22T05:06:17.293Z,18.00
2023-06-22T05:08:45.295Z,18.20
2023-06-22T05:11:13.192Z,18.30
2023-06-22T05:13:42.511Z,18.30
2023-06-22T05:16:10.488Z,18.40
2023-06-22T05:18:38.413Z,18.50
2023-06-22T05:21:06.500Z,18.60
2023-06-22T05:23:34.391Z,18.70
2023-06-22T05:26:02.297Z,18.80
2023-06-22T05:28:30.361Z,19.00
2023-06-22T05:30:59.728Z,19.10
2023-06-22T05:33:27.708Z,19.20
2023-06-22T05:35:55.669Z,19.30
2023-06-22T05:38:23.604Z,19.30
2023-06-22T05:40:51.524Z,19.40
2023-06-22T05:43:19.455Z,19.50
2023-06-22T05:45:47.386Z,19.70
2023-06-22T05:48:16.661Z,19.90
2023-06-22T05:50:44.620Z,20.10
2023-06-22T05:53:12.571Z,20.20
2023-06-22T05:55:40.623Z,20.40
2023-06-22T05:58:08.548Z,20.60
2023-06-22T06:00:36.718Z,20.80
2023-06-22T06:03:05.300Z,20.90
2023-06-22T06:05:35.080Z,21.10
2023-06-22T06:08:03.594Z,21.30
2023-06-22T06:10:32.005Z,21.40
2023-06-22T06:13:00.276Z,21.60
2023-06-22T06:15:28.270Z,21.80
2023-06-22T06:17:56.374Z,21.90
2023-06-22T06:20:25.517Z,22.10
2023-06-22T06:22:54.787Z,22.30
2023-06-22T06:25:23.096Z,22.50
2023-06-22T06:27:51.918Z,22.60
2023-06-22T06:30:20.671Z,22.70
2023-06-22T06:32:48.882Z,22.90
2023-06-22T06:35:17.192Z,23.10
2023-06-22T06:37:45.863Z,23.20
2023-06-22T06:40:16.042Z,23.30
2023-06-22T06:42:46.095Z,23.30
2023-06-22T06:45:14.632Z,23.50
2023-06-22T06:47:42.576Z,23.70
2023-06-22T06:50:10.816Z,23.80
2023-06-22T06:52:39.251Z,23.90
2023-06-22T06:55:10.141Z,24.00
2023-06-22T06:57:39.480Z,24.10
2023-06-22T07:00:12.008Z,24.30
2023-06-22T07:02:40.534Z,24.40
2023-06-22T07:05:09.047Z,24.70
2023-06-22T07:07:38.583Z,24.90
2023-06-22T07:10:07.599Z,25.00
2023-06-22T07:12:35.575Z,25.10
2023-06-22T07:15:06.199Z,25.20
2023-06-22T07:17:34.261Z,25.30
2023-06-22T07:20:02.449Z,25.50
2023-06-22T07:22:30.378Z,25.60
2023-06-22T07:24:58.301Z,25.70
2023-06-22T07:27:26.832Z,25.80
2023-06-22T07:29:56.829Z,25.90
2023-06-22T07:32:26.268Z,26.10
2023-06-22T07:34:54.177Z,26.30
2023-06-22T07:37:22.242Z,26.50
2023-06-22T07:39:51.626Z,26.70
2023-06-22T07:42:20.132Z,26.90
2023-06-22T07:44:48.173Z,26.90
2023-06-22T07:47:16.105Z,27.10
2023-06-22T07:49:45.431Z,27.20
2023-06-22T07:52:13.795Z,27.30
2023-06-22T07:54:41.732Z,27.40
2023-06-22T07:57:09.638Z,27.70
2023-06-22T07:59:37.681Z,27.80
2023-06-22T08:02:06.004Z,27.90
2023-06-22T08:04:37.707Z,28.00
2023-06-22T08:07:07.488Z,28.00
2023-06-22T08:09:35.600Z,28.00
2023-06-22T08:12:03.529Z,28.10
2023-06-22T08:14:31.687Z,28.30
2023-06-22T08:16:59.571Z,28.60
2023-06-22T08:19:27.485Z,28.60
2023-06-22T08:21:55.372Z,28.60
2023-06-22T08:24:24.627Z,28.70
2023-06-22T08:26:53.861Z,28.80
2023-06-22T08:29:21.774Z,28.90
2023-06-22T08:31:49.785Z,29.00
2023-06-22T08:34:19.147Z,29.20
2023-06-22T08:36:49.994Z,29.30
2023-06-22T08:39:17.930Z,29.50
2023-06-22T08:41:47.257Z,29.60
2023-06-22T08:44:15.269Z,29.70
2023-06-22T08:46:43.223Z,29.80
2023-06-22T08:49:12.032Z,29.90
2023-06-22T08:51:40.323Z,30.10
2023-06-22T08:54:08.208Z,30.30
2023-06-22T08:56:36.232Z,30.40
2023-06-22T08:59:08.663Z,30.60
2023-06-22T09:01:36.568Z,30.80
2023-06-22T09:04:06.679Z,31.00
2023-06-22T09:06:34.801Z,31.20
2023-06-22T09:09:03.069Z,31.40
2023-06-22T09:11:30.992Z,31.40
2023-06-22T09:13:59.074Z,31.50
2023-06-22T09:16:28.394Z,31.70
2023-06-22T09:18:56.384Z,31.80
2023-06-22T09:21:24.415Z,32.00
2023-06-22T09:23:52.484Z,32.10
2023-06-22T09:26:20.611Z,32.30
2023-06-22T09:28:48.577Z,32.20
2023-06-22T09:31:17.581Z,32.30
2023-06-22T09:33:48.244Z,32.40
2023-06-22T09:36:17.953Z,32.50
2023-06-22T09:38:45.864Z,32.60
2023-06-22T09:41:13.762Z,32.40
2023-06-22T09:43:41.691Z,32.40
2023-06-22T09:46:10.623Z,32.60
2023-06-22T09:48:40.864Z,32.80
2023-06-22T09:51:10.377Z,33.00
2023-06-22T09:53:39.196Z,33.00
2023-06-22T09:56:07.371Z,33.10
2023-06-22T09:58:35.371Z,33.30
2023-06-22T10:01:03.356Z,33.40
2023-06-22T10:03:31.413Z,33.40
2023-06-22T10:05:59.612Z,33.50
2023-06-22T10:08:28.913Z,33.40
2023-06-22T10:10:56.865Z,33.70
2023-06-22T10:13:24.778Z,33.80
2023-06-22T10:15:53.249Z,33.80
2023-06-22T10:18:21.251Z,33.80
2023-06-22T10:20:50.102Z,33.90
2023-06-22T10:23:18.046Z,33.80
2023-06-22T10:25:47.521Z,33.80
2023-06-22T10:28:15.620Z,34.00
2023-06-22T10:30:43.969Z,34.00
2023-06-22T10:33:12.176Z,34.00
2023-06-22T10:35:40.571Z,34.10
2023-06-22T10:38:09.416Z,34.10
2023-06-22T10:40:37.674Z,34.30
2023-06-22T10:43:07.508Z,34.40
2023-06-22T10:45:35.494Z,34.30
2023-06-22T10:48:03.433Z,34.40
2023-06-22T10:50:31.467Z,34.30
2023-06-22T10:53:00.696Z,34.40
2023-06-22T10:55:37.127Z,34.40
2023-06-22T10:58:16.633Z,34.40
2023-06-22T11:00:44.523Z,34.70
2023-06-22T11:03:14.790Z,34.70
2023-06-22T11:05:43.316Z,34.60
2023-06-22T11:08:11.269Z,34.70
2023-06-22T11:10:39.346Z,34.70
2023-06-22T11:13:10.992Z,34.70
2023-06-22T11:15:42.101Z,34.80
2023-06-22T11:18:10.005Z,34.90
2023-06-22T11:20:40.125Z,35.10
2023-06-22T11:23:08.379Z,35.40
2023-06-22T11:25:36.626Z,35.30
2023-06-22T11:28:04.701Z,35.50
2023-06-22T11:30:32.711Z,35.50
2023-06-22T11:33:02.115Z,35.50
2023-06-22T11:35:30.083Z,35.70
2023-06-22T11:37:59.298Z,35.90
2023-06-22T11:40:27.602Z,36.00
2023-06-22T11:42:55.804Z,36.00
2023-06-22T11:45:23.852Z,36.00
2023-06-22T11:47:51.825Z,36.00
2023-06-22T11:50:21.281Z,36.00
2023-06-22T11:52:49.209Z,35.90
2023-06-22T11:55:17.461Z,35.90
2023-06-22T11:57:54.650Z,36.20
2023-06-22T12:02:53.525Z,36.40
2023-06-22T12:05:23.307Z,36.10
2023-06-22T12:07:51.254Z,36.10
2023-06-22T12:10:19.887Z,36.00
2023-06-22T12:12:47.798Z,36.00
2023-06-22T12:15:15.793Z,36.20
2023-06-22T12:17:43.804Z,36.20
2023-06-22T12:20:12.404Z,36.10
2023-06-22T12:22:42.555Z,36.10
2023-06-22T12:25:10.644Z,36.30
2023-06-22T12:27:38.593Z,36.60
2023-06-22T12:30:07.232Z,36.90
2023-06-22T12:32:35.197Z,37.10
2023-06-22T12:35:03.197Z,37.20
2023-06-22T12:37:32.727Z,37.30
2023-06-22T12:40:02.058Z,37.30
2023-06-22T12:42:29.995Z,37.10
2023-06-22T12:44:57.933Z,37.10
2023-06-22T12:47:25.917Z,37.00
2023-06-22T12:49:53.888Z,36.80
2023-06-22T12:52:21.807Z,36.70
2023-06-22T12:54:55.322Z,36.30
2023-06-22T12:57:26.543Z,36.00
2023-06-22T12:59:54.462Z,36.00
2023-06-22T13:02:22.401Z,35.80
2023-06-22T13:04:50.438Z,35.50
2023-06-22T13:07:23.474Z,35.50
2023-06-22T13:09:53.524Z,35.80
2023-06-22T13:12:22.143Z,35.90
2023-06-22T13:14:51.657Z,36.10
2023-06-22T13:17:19.588Z,36.20
2023-06-22T13:19:47.528Z,36.20
2023-06-22T13:22:31.728Z,36.20
2023-06-22T13:25:00.231Z,36.40
2023-06-22T13:27:28.362Z,36.60
2023-06-22T13:29:57.655Z,36.70
2023-06-22T13:32:25.702Z,36.70
2023-06-22T13:34:54.617Z,36.50
2023-06-22T13:37:22.563Z,36.50
2023-06-22T13:39:50.519Z,36.40
2023-06-22T13:42:18.412Z,36.40
2023-06-22T13:44:46.389Z,36.40
2023-06-22T13:47:15.724Z,36.40
2023-06-22T13:49:43.675Z,36.50
2023-06-22T13:52:13.857Z,36.60
2023-06-22T13:54:41.912Z,36.70
2023-06-22T13:57:09.801Z,36.80
2023-06-22T13:59:37.971Z,36.60
2023-06-22T14:02:06.246Z,36.50
2023-06-22T14:04:35.614Z,36.60
2023-06-22T14:07:03.637Z,36.70
2023-06-22T14:09:31.628Z,36.60
2023-06-22T14:11:59.588Z,36.60
2023-06-22T14:14:27.926Z,36.60
2023-06-22T14:16:55.896Z,36.60
2023-06-22T14:19:23.879Z,36.70
2023-06-22T14:21:53.178Z,36.70
2023-06-22T14:24:23.663Z,36.60
2023-06-22T14:26:52.967Z,36.70
2023-06-22T14:29:20.932Z,36.80
2023-06-22T14:31:49.091Z,36.70
2023-06-22T14:34:17.307Z,36.40
2023-06-22T14:36:45.511Z,36.40
2023-06-22T14:39:15.296Z,36.40
2023-06-22T14:41:43.307Z,36.30
2023-06-22T14:44:11.304Z,36.20
2023-06-22T14:46:39.222Z,36.20
2023-06-22T14:49:07.133Z,36.20
2023-06-22T14:51:35.071Z,36.20
2023-06-22T14:54:03.053Z,36.20
2023-06-22T14:56:33.547Z,36.10
2023-06-22T14:59:02.936Z,36.00
2023-06-22T15:01:30.892Z,35.90
2023-06-22T15:03:58.941Z,35.90
2023-06-22T15:06:28.172Z,35.80
2023-06-22T15:08:56.071Z,35.80
2023-06-22T15:11:24.053Z,35.70
2023-06-22T15:13:53.364Z,35.60
2023-06-22T15:16:21.386Z,35.50
2023-06-22T15:18:50.125Z,35.60
2023-06-22T15:21:18.115Z,35.50
2023-06-22T15:23:46.061Z,35.30
2023-06-22T15:26:14.015Z,35.20
2023-06-22T15:28:41.999Z,35.10
2023-06-22T15:31:11.280Z,35.00
2023-06-22T15:33:39.273Z,34.90
2023-06-22T15:36:08.057Z,34.70
2023-06-22T15:38:36.123Z,34.70
2023-06-22T15:41:04.322Z,34.70
2023-06-22T15:43:32.283Z,34.80
2023-06-22T15:46:00.236Z,34.70
2023-06-22T15:48:29.504Z,34.70
2023-06-22T15:50:57.442Z,34.80
2023-06-22T15:53:25.366Z,34.70
2023-06-22T15:55:54.035Z,34.60
2023-06-22T15:58:21.983Z,34.60
2023-06-22T16:00:51.092Z,34.60
2023-06-22T16:03:21.143Z,34.50
2023-06-22T16:05:50.593Z,34.30
2023-06-22T16:08:18.561Z,34.20
2023-06-22T16:10:46.502Z,33.90
2023-06-22T16:13:16.293Z,33.70
2023-06-22T16:15:44.287Z,33.40
2023-06-22T16:18:12.262Z,33.20
2023-06-22T16:20:40.522Z,33.00
2023-06-22T16:23:09.814Z,32.90
2023-06-22T16:25:37.738Z,32.60
2023-06-22T16:28:05.744Z,32.20
2023-06-22T16:30:34.305Z,32.00
2023-06-22T16:33:03.451Z,31.80
2023-06-22T16:35:33.843Z,31.60
2023-06-22T16:38:01.905Z,31.40
2023-06-22T16:40:31.659Z,31.30
2023-06-22T16:42:59.935Z,31.10
2023-06-22T16:45:27.901Z,30.90
2023-06-22T16:47:56.024Z,30.80
2023-06-22T16:50:23.977Z,30.60
2023-06-22T16:52:51.942Z,30.50
2023-06-22T16:55:22.896Z,30.40
2023-06-22T16:57:52.950Z,30.30
2023-06-22T17:00:21.216Z,30.10
2023-06-22T17:02:50.641Z,30.00
2023-06-22T17:05:19.418Z,29.90
2023-06-22T17:07:50.943Z,29.80
2023-06-22T17:10:19.083Z,29.70
2023-06-22T17:12:47.119Z,29.60
2023-06-22T17:15:16.480Z,29.50
2023-06-22T17:17:45.142Z,29.40
2023-06-22T17:20:13.097Z,29.20
2023-06-22T17:22:41.113Z,29.10
2023-06-22T17:25:10.777Z,29.00
2023-06-22T17:27:38.829Z,28.90
2023-06-22T17:30:07.918Z,28.80
2023-06-22T17:32:37.357Z,28.70
2023-06-22T17:35:05.842Z,28.60
2023-06-22T17:37:48.185Z,28.40
2023-06-22T17:40:16.822Z,28.30
2023-06-22T17:42:44.948Z,28.20
2023-06-22T17:45:19.569Z,28.10
2023-06-22T17:47:53.249Z,28.00
2023-06-22T17:50:23.814Z,28.00
2023-06-22T17:52:52.834Z,27.90
2023-06-22T17:55:22.229Z,27.90
2023-06-22T17:57:51.521Z,27.80
2023-06-22T18:00:21.314Z,27.70
2023-06-22T18:02:51.340Z,27.60
2023-06-22T18:05:30.095Z,27.50
2023-06-22T18:07:58.755Z,27.50
2023-06-22T18:10:28.193Z,27.40
2023-06-22T18:12:56.899Z,27.30
2023-06-22T18:15:25.067Z,27.20
2023-06-22T18:17:53.305Z,27.20
2023-06-22T18:20:23.129Z,27.10
2023-06-22T18:22:51.788Z,27.00
2023-06-22T18:25:20.104Z,27.00
2023-06-22T18:27:48.841Z,27.00
2023-06-22T18:30:18.820Z,26.80
2023-06-22T18:32:46.864Z,26.70
2023-06-22T18:35:14.821Z,26.60
2023-06-22T18:37:45.921Z,26.60
2023-06-22T18:40:18.309Z,26.50
2023-06-22T18:42:46.843Z,26.40
2023-06-22T18:45:24.959Z,26.40
2023-06-22T18:48:03.517Z,26.20
2023-06-22T18:50:38.604Z,26.20
2023-06-22T18:53:12.584Z,26.10
2023-06-22T18:55:42.713Z,26.00
2023-06-22T18:58:24.928Z,25.90
2023-06-22T19:00:53.763Z,25.90
2023-06-22T19:03:32.257Z,25.80
2023-06-22T19:06:00.394Z,25.70
2023-06-22T19:08:29.656Z,25.60
2023-06-22T19:11:12.945Z,25.50
2023-06-22T19:13:49.250Z,25.40
2023-06-22T19:16:18.166Z,25.30
2023-06-22T19:18:50.609Z,25.30
2023-06-22T19:21:22.993Z,25.20
2023-06-22T19:23:52.555Z,25.10
2023-06-22T19:26:22.809Z,25.00
2023-06-22T19:28:51.389Z,25.00
2023-06-22T19:31:20.432Z,24.90
2023-06-22T19:33:48.417Z,24.80
2023-06-22T19:36:20.970Z,24.80
2023-06-22T19:38:48.994Z,24.70
2023-06-22T19:41:18.493Z,24.60
2023-06-22T19:43:47.371Z,24.50
2023-06-22T19:46:15.654Z,24.50
2023-06-22T19:48:44.566Z,24.50
2023-06-22T19:51:13.237Z,24.50
2023-06-22T19:53:42.184Z,24.50
2023-06-22T19:56:10.083Z,24.40
2023-06-22T19:58:39.660Z,24.40
2023-06-22T20:01:07.596Z,24.30
2023-06-22T20:03:38.821Z,24.20
2023-06-22T20:06:10.249Z,24.20
2023-06-22T20:08:45.296Z,24.10
2023-06-22T20:11:13.398Z,24.10
2023-06-22T20:13:49.545Z,24.10
2023-06-22T20:16:18.726Z,24.10
2023-06-22T20:18:46.837Z,24.00
2023-06-22T20:21:15.335Z,24.00
2023-06-22T20:23:43.425Z,23.90
2023-06-22T20:26:11.549Z,23.90
2023-06-22T20:28:39.813Z,23.80
2023-06-22T20:31:11.329Z,23.80
2023-06-22T20:33:39.372Z,23.80
2023-06-22T20:36:08.035Z,23.80
2023-06-22T20:38:36.846Z,23.80
2023-06-22T20:41:06.599Z,23.70
2023-06-22T20:43:34.620Z,23.60
2023-06-22T20:46:02.604Z,23.60
2023-06-22T20:48:39.587Z,23.60
2023-06-22T20:51:08.156Z,23.60
2023-06-22T20:53:36.118Z,23.50
2023-06-22T20:56:04.204Z,23.50
2023-06-22T20:58:32.130Z,23.40
2023-06-22T21:01:01.561Z,23.30
2023-06-22T21:03:29.864Z,23.30
2023-06-22T21:05:59.295Z,23.30
2023-06-22T21:08:27.264Z,23.20
2023-06-22T21:10:55.258Z,23.20
2023-06-22T21:13:23.351Z,23.10
2023-06-22T21:15:51.269Z,23.10
2023-06-22T21:18:19.200Z,23.00
2023-06-22T21:20:47.067Z,23.00
2023-06-22T21:23:16.391Z,22.90
2023-06-22T21:25:44.316Z,22.90
2023-06-22T21:28:12.246Z,22.90
2023-06-22T21:30:40.138Z,22.80
2023-06-22T21:33:08.085Z,22.80
2023-06-22T21:35:36.033Z,22.80
2023-06-22T21:38:04.315Z,22.70
2023-06-22T21:40:33.592Z,22.60
2023-06-22T21:43:04.457Z,22.60
2023-06-22T21:45:33.120Z,22.60
2023-06-22T21:48:01.350Z,22.60
2023-06-22T21:50:29.308Z,22.50
2023-06-22T21:52:57.295Z,22.50
2023-06-22T21:55:25.268Z,22.50
2023-06-22T21:57:54.862Z,22.40
2023-06-22T22:00:22.899Z,22.40
2023-06-22T22:02:50.950Z,22.40
2023-06-22T22:05:19.650Z,22.40
2023-06-22T22:07:47.602Z,22.30
2023-06-22T22:10:16.797Z,22.20
2023-06-22T22:12:44.712Z,22.20
2023-06-22T22:15:13.994Z,22.10
2023-06-22T22:17:41.973Z,22.10
2023-06-22T22:20:10.773Z,22.10
2023-06-22T22:22:38.768Z,22.00
2023-06-22T22:25:07.136Z,21.90
2023-06-22T22:27:35.052Z,21.90
2023-06-22T22:30:03.416Z,21.80
2023-06-22T22:32:32.704Z,21.80
2023-06-22T22:35:01.116Z,21.80
2023-06-22T22:37:29.064Z,21.70
2023-06-22T22:39:56.973Z,21.70
2023-06-22T22:42:24.872Z,21.70
2023-06-22T22:44:52.789Z,21.70
2023-06-22T22:47:20.677Z,21.60
2023-06-22T22:49:49.980Z,21.60
2023-06-22T22:52:17.922Z,21.60
2023-06-22T22:54:46.252Z,21.50
2023-06-22T22:57:14.317Z,21.50
2023-06-22T22:59:42.195Z,21.50
2023-06-22T23:02:10.318Z,21.40
2023-06-22T23:04:41.143Z,21.40
2023-06-22T23:07:10.425Z,21.40
2023-06-22T23:09:38.326Z,21.30
2023-06-22T23:12:07.043Z,21.30
2023-06-22T23:14:35.019Z,21.30
2023-06-22T23:17:04.082Z,21.20
2023-06-22T23:19:34.598Z,21.20
2023-06-22T23:22:02.608Z,21.20
2023-06-22T23:24:32.014Z,21.20
2023-06-22T23:26:59.998Z,21.20
2023-06-22T23:29:27.906Z,21.20
2023-06-22T23:31:55.949Z,21.20
2023-06-22T23:34:23.975Z,21.20
2023-06-22T23:36:51.908Z,21.20
2023-06-22T23:39:19.842Z,21.10
2023-06-22T23:41:49.703Z,21.10
2023-06-22T23:44:17.628Z,21.10
2023-06-22T23:46:45.518Z,21.00
2023-06-22T23:49:15.427Z,21.00
2023-06-22T23:51:43.320Z,21.00
2023-06-22T23:54:11.251Z,20.90
2023-06-22T23:56:39.196Z,20.80
2023-06-22T23:59:09.475Z,20.80
